Richland Center, WI

3:44 PM CDT on July 29, 2015 (GMT -0500)
KWIRICHL5 | | Change Station
CLOSE
Current Station
Personal Weather Station
Location: Richland Center, WI
Elevation: 741 ft
Nearby Weather Stations

Elev 741 ft 43.33 °N, 90.39 °W | Updated 36 seconds ago

Clear
Clear
84.5 °F
Feels Like 83 °F
N
9.0
Wind Variable Wind from NW
Gusts 23.0 mph

Today
High -- | Low -- °F
--% Chance of Precip.
Yesterday
High -- | Low -- °F
Precip. -- in
5:48 AM 8:27 PM
Waxing Gibbous, 97% visible
Pressure 29.96 in
Visibility 10.0 miles
Clouds Clear
Heat Index 83 °F
Dew Point 56 °F
Humidity 38%
Rainfall 0.00 in
Snow Depth Not available.
UV 9 out of 12
Pollen .20 out of 12
Air Quality Not available.
Flu Activity Not available.
METAR KLNR 291956Z AUTO 29014KT 10SM CLR 29/11 A2999 RMK AO2 PK WND 28027/1924 SLP144 T02940111

More Conditions Fewer Conditions

Pressure 29.96 in
Visibility 10.0 miles
Clouds Clear
Heat Index 83 °F
Dew Point 56 °F
Humidity 38%
Rainfall 0.00 in
Snow Depth Not available.
UV 9 out of 12
Pollen .20 out of 12
Air Quality Not available.
Flu Activity Not available.
METAR KLNR 291956Z AUTO 29014KT 10SM CLR 29/11 A2999 RMK AO2 PK WND 28027/1924 SLP144 T02940111

More Conditions Fewer Conditions

10-Day Weather Forecast

×

Almanac

Astronomy

Jul. 29, 2015 Rise Set
Actual Time
Civil Twilight
Nautical Twilight
Astronomical Twilight
Moon
Length of Visible Light
Length of Day
Tomorrow will be .
, % of the Moon is Illuminated

Today's Extremes

State Highs State Lows

Community

WunderPhotos

Upload Photos

1,842,161 photos uploaded!

WunderBlogs® & News

Nearby

Air Quality

  Air Quality AQ Index Pollutant
Not available.

Snow Depth

Station Depth Elevation

Earthquake Activity

City Distance Mag. Time & Date
Minimum magnitude displayed is 2.5.

Coastal Water Temperatures

Place Temperature

Stations

Nearby Weather Stations

Station Location Temp. Windchill Dew Point Humidity Wind Precip. Elev Updated Type